Time;durP1;ratioP1;P1;durP2;ratioP2;P2;SDS_P1;SDS_P2;PMS_P1;PMS_P2;Temp;Humidity;BMP_temperature;BMP_pressure;BME280_temperature;BME280_humidity;BME280_pressure;Samples;Min_cycle;Max_cycle;Signal;HPM_P1;HPM_P2
2022/08/17 00:02:27;;;;;;;1999.90;999.90;;;;;;;;;;5083754;28;20168;-58
2022/08/17 00:05:13;;;;;;;1999.90;999.90;;;;;;;;;;5086798;28;20532;-60
2022/08/17 00:07:57;;;;;;;1999.90;999.90;;;;;;;;;;5083855;28;20044;-59
2022/08/17 00:10:43;;;;;;;1999.90;999.90;;;;;;;;;;5082807;28;20048;-59
2022/08/17 00:13:30;;;;;;;1999.90;999.90;;;;;;;;;;5082842;28;20486;-59
2022/08/17 00:16:19;;;;;;;1999.90;999.90;;;;;;;;;;5084207;28;20486;-59
2022/08/17 00:19:06;;;;;;;1999.90;999.90;;;;;;;;;;5084439;28;20047;-59
2022/08/17 00:21:52;;;;;;;1999.90;999.90;;;;;;;;;;5086722;28;20047;-59
2022/08/17 00:24:36;;;;;;;1999.90;999.90;;;;;;;;;;5085677;28;20081;-59
2022/08/17 00:27:20;;;;;;;1999.90;999.90;;;;;;;;;;5083508;28;20097;-59
2022/08/17 00:30:06;;;;;;;1999.90;999.90;;;;;;;;;;5087703;28;20422;-59
2022/08/17 00:32:50;;;;;;;1999.90;999.90;;;;;;;;;;5086675;28;20063;-59
2022/08/17 00:35:34;;;;;;;1999.90;999.90;;;;;;;;;;5087045;28;20390;-58
2022/08/17 00:38:20;;;;;;;1999.90;999.90;;;;;;;;;;5086354;28;20052;-58
2022/08/17 00:41:06;;;;;;;1999.90;999.90;;;;;;;;;;5085210;28;20059;-59
2022/08/17 00:44:00;;;;;;;1999.90;999.90;;;;;;;;;;5085082;28;20047;-58
2022/08/17 00:46:46;;;;;;;1999.90;999.90;;;;;;;;;;5085153;28;20051;-59
2022/08/17 00:49:30;;;;;;;1999.90;999.90;;;;;;;;;;5084383;28;20052;-58
2022/08/17 00:52:17;;;;;;;1999.90;999.90;;;;;;;;;;5082167;28;20043;-59
2022/08/17 00:55:03;;;;;;;1999.90;999.90;;;;;;;;;;5086532;28;20051;-59
2022/08/17 00:57:49;;;;;;;1999.90;999.90;;;;;;;;;;5086113;28;20371;-58
2022/08/17 01:00:39;;;;;;;1999.90;999.90;;;;;;;;;;5074216;28;20105;-58
2022/08/17 01:03:24;;;;;;;1999.90;999.90;;;;;;;;;;5076818;28;20045;-58
2022/08/17 01:06:09;;;;;;;1999.90;999.90;;;;;;;;;;5079812;28;20051;-58
2022/08/17 01:08:56;;;;;;;1999.90;999.90;;;;;;;;;;5079863;28;20124;-58
2022/08/17 01:11:40;;;;;;;1999.90;999.90;;;;;;;;;;5078469;28;20086;-58
2022/08/17 01:14:24;;;;;;;1999.90;999.90;;;;;;;;;;5077512;28;20046;-59
2022/08/17 01:17:09;;;;;;;1999.90;999.90;;;;;;;;;;5079906;28;20460;-58
2022/08/17 01:19:53;;;;;;;1999.90;999.90;;;;;;;;;;5079976;28;20085;-58
2022/08/17 01:22:37;;;;;;;1999.90;999.90;;;;;;;;;;5079345;28;20048;-58
2022/08/17 01:25:21;;;;;;;1999.90;999.90;;;;;;;;;;5079981;28;20092;-59
2022/08/17 01:28:06;;;;;;;1999.90;999.90;;;;;;;;;;5081321;28;20055;-58
2022/08/17 01:30:52;;;;;;;1999.90;999.90;;;;;;;;;;5078878;28;20190;-59
2022/08/17 01:33:36;;;;;;;1999.90;999.90;;;;;;;;;;5081398;28;20048;-58
2022/08/17 01:36:21;;;;;;;1999.90;999.90;;;;;;;;;;5080468;28;20452;-58
2022/08/17 01:39:07;;;;;;;1999.90;999.90;;;;;;;;;;5079153;28;20471;-58
2022/08/17 01:41:54;;;;;;;1999.90;999.90;;;;;;;;;;5081935;28;20083;-59
2022/08/17 01:44:38;;;;;;;1999.90;999.90;;;;;;;;;;5080230;28;21451;-58
2022/08/17 01:47:23;;;;;;;1999.90;999.90;;;;;;;;;;5078553;28;20074;-58
2022/08/17 01:50:14;;;;;;;1999.90;999.90;;;;;;;;;;5080048;28;20056;-58
2022/08/17 01:53:01;;;;;;;1999.90;999.90;;;;;;;;;;5077404;28;20175;-58
2022/08/17 01:55:48;;;;;;;1999.90;999.90;;;;;;;;;;5079864;28;20079;-58
2022/08/17 01:58:33;;;;;;;1999.90;999.90;;;;;;;;;;5079729;28;20047;-58
2022/08/17 02:01:21;;;;;;;1999.90;999.90;;;;;;;;;;5080308;28;20047;-59
2022/08/17 02:04:05;;;;;;;1999.90;999.90;;;;;;;;;;5077276;28;20036;-59
2022/08/17 02:06:50;;;;;;;1999.90;999.90;;;;;;;;;;5080765;28;20066;-58
2022/08/17 02:09:34;;;;;;;1999.90;999.90;;;;;;;;;;5079298;28;20505;-58
2022/08/17 02:12:19;;;;;;;1999.90;999.90;;;;;;;;;;5080869;28;20054;-58
2022/08/17 02:15:04;;;;;;;1999.90;999.90;;;;;;;;;;5077542;28;20071;-58
2022/08/17 02:17:49;;;;;;;1999.90;999.90;;;;;;;;;;5080544;28;20063;-59
2022/08/17 02:20:34;;;;;;;1999.90;999.90;;;;;;;;;;5078248;28;20032;-59
2022/08/17 02:23:19;;;;;;;1999.90;999.90;;;;;;;;;;5079356;28;20055;-59
2022/08/17 02:26:03;;;;;;;1999.90;999.90;;;;;;;;;;5080462;28;20074;-58
2022/08/17 02:28:48;;;;;;;1999.90;999.90;;;;;;;;;;5083019;28;20411;-58
2022/08/17 02:31:34;;;;;;;1999.90;999.90;;;;;;;;;;5079964;28;20047;-58
2022/08/17 02:34:18;;;;;;;1999.90;999.90;;;;;;;;;;5079531;28;20552;-58
2022/08/17 02:37:03;;;;;;;1999.90;999.90;;;;;;;;;;5081808;28;20400;-58
2022/08/17 02:39:47;;;;;;;1999.90;999.90;;;;;;;;;;5079775;28;20048;-58
2022/08/17 02:42:33;;;;;;;1999.90;999.90;;;;;;;;;;5080325;28;20422;-58
2022/08/17 02:45:20;;;;;;;1999.90;999.90;;;;;;;;;;5076819;28;20387;-58
2022/08/17 02:48:04;;;;;;;1999.90;999.90;;;;;;;;;;5080614;28;20051;-59
2022/08/17 02:50:48;;;;;;;1999.90;999.90;;;;;;;;;;5082184;28;20449;-58
2022/08/17 02:53:32;;;;;;;1999.90;999.90;;;;;;;;;;5078428;28;20586;-58
2022/08/17 02:56:17;;;;;;;1999.90;999.90;;;;;;;;;;5077508;28;20055;-58
2022/08/17 02:59:01;;;;;;;1999.90;999.90;;;;;;;;;;5079646;28;20089;-59
2022/08/17 03:01:46;;;;;;;1999.90;999.90;;;;;;;;;;5077265;28;20044;-58
2022/08/17 03:04:30;;;;;;;1999.90;999.90;;;;;;;;;;5080843;28;20051;-58
2022/08/17 03:07:15;;;;;;;1999.90;999.90;;;;;;;;;;5081186;28;20059;-58
2022/08/17 03:09:59;;;;;;;1999.90;999.90;;;;;;;;;;5083592;28;20051;-58
2022/08/17 03:12:44;;;;;;;1999.90;999.90;;;;;;;;;;5081413;28;20043;-58
2022/08/17 03:15:30;;;;;;;1999.90;999.90;;;;;;;;;;5080012;28;20079;-58
2022/08/17 03:18:16;;;;;;;1999.90;999.90;;;;;;;;;;5081702;28;20048;-58
2022/08/17 03:21:03;;;;;;;1999.90;999.90;;;;;;;;;;5082543;28;20093;-58
2022/08/17 03:23:47;;;;;;;1999.90;999.90;;;;;;;;;;5084291;28;20043;-58
2022/08/17 03:26:31;;;;;;;1999.90;999.90;;;;;;;;;;5085577;28;20040;-58
2022/08/17 03:29:18;;;;;;;1999.90;999.90;;;;;;;;;;5084383;28;20075;-58
2022/08/17 03:32:09;;;;;;;1999.90;999.90;;;;;;;;;;5082985;28;20052;-58
2022/08/17 03:34:58;;;;;;;1999.90;999.90;;;;;;;;;;5085241;28;20097;-58
2022/08/17 03:37:42;;;;;;;1999.90;999.90;;;;;;;;;;5085452;28;20576;-58
2022/08/17 03:40:27;;;;;;;1999.90;999.90;;;;;;;;;;5085863;28;20737;-58
2022/08/17 03:43:12;;;;;;;1999.90;999.90;;;;;;;;;;5084977;28;20054;-58
2022/08/17 03:58:22;;;;;;;1999.90;999.90;;;;;;;;;;5083224;28;20056;-58
2022/08/17 04:01:06;;;;;;;1999.90;999.90;;;;;;;;;;5081919;28;20043;-58
2022/08/17 04:03:51;;;;;;;1999.90;999.90;;;;;;;;;;5081761;28;20119;-58
2022/08/17 04:06:35;;;;;;;1999.90;999.90;;;;;;;;;;5082591;28;20116;-58
2022/08/17 04:09:19;;;;;;;1999.90;999.90;;;;;;;;;;5080541;28;20475;-58
2022/08/17 04:12:04;;;;;;;1999.90;999.90;;;;;;;;;;5082917;28;20044;-58
2022/08/17 04:14:49;;;;;;;1999.90;999.90;;;;;;;;;;5081726;28;20390;-58
2022/08/17 04:17:33;;;;;;;1999.90;999.90;;;;;;;;;;5080037;28;20060;-58
2022/08/17 04:20:19;;;;;;;1999.90;999.90;;;;;;;;;;5079310;28;20461;-58
2022/08/17 04:23:09;;;;;;;1999.90;999.90;;;;;;;;;;5080269;28;20051;-58
2022/08/17 04:25:53;;;;;;;1999.90;999.90;;;;;;;;;;5081406;28;20055;-58
2022/08/17 04:28:37;;;;;;;1999.90;999.90;;;;;;;;;;5080495;28;20035;-58
2022/08/17 04:31:23;;;;;;;1999.90;999.90;;;;;;;;;;5081225;28;20044;-58
2022/08/17 04:34:08;;;;;;;1999.90;999.90;;;;;;;;;;5078737;28;20043;-58
2022/08/17 04:36:52;;;;;;;1999.90;999.90;;;;;;;;;;5081471;28;20051;-58
2022/08/17 04:39:36;;;;;;;1999.90;999.90;;;;;;;;;;5084518;28;20066;-58
2022/08/17 04:42:21;;;;;;;1999.90;999.90;;;;;;;;;;5082086;28;20640;-58
2022/08/17 04:45:05;;;;;;;1999.90;999.90;;;;;;;;;;5082599;28;20071;-58
2022/08/17 04:47:50;;;;;;;1999.90;999.90;;;;;;;;;;5083597;28;20434;-58
2022/08/17 04:50:34;;;;;;;1999.90;999.90;;;;;;;;;;5082070;28;20149;-59
2022/08/17 04:53:20;;;;;;;1999.90;999.90;;;;;;;;;;5079796;28;20074;-59
2022/08/17 04:56:05;;;;;;;1999.90;999.90;;;;;;;;;;5081117;28;20046;-59
2022/08/17 04:58:50;;;;;;;1999.90;999.90;;;;;;;;;;5075994;28;20052;-59
2022/08/17 05:01:36;;;;;;;1999.90;999.90;;;;;;;;;;5078992;28;20062;-58
2022/08/17 05:04:23;;;;;;;1999.90;999.90;;;;;;;;;;5080225;28;20032;-58
2022/08/17 05:07:07;;;;;;;1999.90;999.90;;;;;;;;;;5079166;28;20036;-58
2022/08/17 05:09:52;;;;;;;1999.90;999.90;;;;;;;;;;5081317;28;20075;-59
2022/08/17 05:12:37;;;;;;;1999.90;999.90;;;;;;;;;;5083298;28;20173;-58
2022/08/17 05:15:21;;;;;;;1999.90;999.90;;;;;;;;;;5080463;28;20417;-59
2022/08/17 05:18:06;;;;;;;1999.90;999.90;;;;;;;;;;5080946;28;20512;-59
2022/08/17 05:20:51;;;;;;;1999.90;999.90;;;;;;;;;;5083281;28;20117;-59
2022/08/17 05:23:36;;;;;;;1999.90;999.90;;;;;;;;;;5082404;28;20670;-60
2022/08/17 05:26:21;;;;;;;1999.90;999.90;;;;;;;;;;5081636;28;20051;-61
2022/08/17 05:29:05;;;;;;;1999.90;999.90;;;;;;;;;;5077275;28;20051;-59
2022/08/17 05:31:50;;;;;;;1999.90;999.90;;;;;;;;;;5084569;28;20052;-60
2022/08/17 05:34:35;;;;;;;1999.90;999.90;;;;;;;;;;5081708;28;20101;-60
2022/08/17 05:37:19;;;;;;;1999.90;999.90;;;;;;;;;;5081836;28;20078;-59
2022/08/17 05:40:04;;;;;;;1999.90;999.90;;;;;;;;;;5082908;28;20133;-60
2022/08/17 05:42:48;;;;;;;1999.90;999.90;;;;;;;;;;5082537;28;20043;-59
2022/08/17 05:45:33;;;;;;;1999.90;999.90;;;;;;;;;;5075247;28;20051;-61
2022/08/17 05:48:18;;;;;;;1999.90;999.90;;;;;;;;;;5077145;28;20055;-61
2022/08/17 05:51:02;;;;;;;1999.90;999.90;;;;;;;;;;5079724;28;20145;-60
2022/08/17 05:53:46;;;;;;;1999.90;999.90;;;;;;;;;;5077068;28;20364;-61
2022/08/17 05:56:49;;;;;;;1999.90;999.90;;;;;;;;;;5079947;28;20040;-61
2022/08/17 05:59:34;;;;;;;1999.90;999.90;;;;;;;;;;5081834;28;20521;-61
2022/08/17 06:02:24;;;;;;;1999.90;999.90;;;;;;;;;;5075244;28;20036;-61
2022/08/17 06:05:11;;;;;;;1999.90;999.90;;;;;;;;;;5079264;28;20075;-61
2022/08/17 06:08:08;;;;;;;1999.90;999.90;;;;;;;;;;5078875;28;20530;-61
2022/08/17 06:11:00;;;;;;;1999.90;999.90;;;;;;;;;;5082230;28;20082;-62
2022/08/17 06:14:00;;;;;;;1999.90;999.90;;;;;;;;;;5080342;28;20055;-61
2022/08/17 06:16:46;;;;;;;1999.90;999.90;;;;;;;;;;5085355;28;20036;-61
2022/08/17 06:19:42;;;;;;;1999.90;999.90;;;;;;;;;;5084540;28;20058;-60
2022/08/17 06:22:28;;;;;;;1999.90;999.90;;;;;;;;;;5080793;28;20048;-61
2022/08/17 06:25:15;;;;;;;1999.90;999.90;;;;;;;;;;5080988;28;20042;-62
2022/08/17 06:28:13;;;;;;;1999.90;999.90;;;;;;;;;;5083231;28;20047;-62
2022/08/17 06:31:01;;;;;;;1999.90;999.90;;;;;;;;;;5081027;28;20506;-61
2022/08/17 06:33:46;;;;;;;1999.90;999.90;;;;;;;;;;5085853;28;20557;-62
2022/08/17 06:36:30;;;;;;;1999.90;999.90;;;;;;;;;;5084976;28;20085;-63
2022/08/17 06:39:15;;;;;;;1999.90;999.90;;;;;;;;;;5086704;28;20080;-63
2022/08/17 06:42:17;;;;;;;1999.90;999.90;;;;;;;;;;5076187;28;20050;-64
2022/08/17 06:45:28;;;;;;;1999.90;999.90;;;;;;;;;;5087045;28;20154;-62
2022/08/17 06:48:12;;;;;;;1999.90;999.90;;;;;;;;;;5087109;28;20601;-63
2022/08/17 06:51:03;;;;;;;1999.90;999.90;;;;;;;;;;5086489;28;20558;-63
2022/08/17 06:53:49;;;;;;;1999.90;999.90;;;;;;;;;;5086494;28;20649;-63
2022/08/17 06:56:37;;;;;;;1999.90;999.90;;;;;;;;;;5084890;28;20512;-63
2022/08/17 06:59:27;;;;;;;1999.90;999.90;;;;;;;;;;5081748;28;20056;-64
2022/08/17 07:02:14;;;;;;;1999.90;999.90;;;;;;;;;;5084262;28;20585;-64
2022/08/17 07:05:00;;;;;;;1999.90;999.90;;;;;;;;;;5080187;28;20041;-65
2022/08/17 07:08:11;;;;;;;1999.90;999.90;;;;;;;;;;5084426;28;20068;-65
2022/08/17 07:10:56;;;;;;;1999.90;999.90;;;;;;;;;;5083284;28;20081;-64
2022/08/17 07:13:45;;;;;;;1999.90;999.90;;;;;;;;;;5084693;28;20051;-64
2022/08/17 07:16:49;;;;;;;1999.90;999.90;;;;;;;;;;5082285;28;20497;-63
2022/08/17 07:19:34;;;;;;;1999.90;999.90;;;;;;;;;;5077316;28;20375;-62
2022/08/17 07:22:22;;;;;;;1999.90;999.90;;;;;;;;;;5084172;28;20125;-64
2022/08/17 07:25:08;;;;;;;1999.90;999.90;;;;;;;;;;5084035;28;20044;-63
2022/08/17 07:27:54;;;;;;;1999.90;999.90;;;;;;;;;;5083450;28;20434;-65
2022/08/17 07:30:43;;;;;;;1999.90;999.90;;;;;;;;;;5081711;28;20055;-63
2022/08/17 07:33:29;;;;;;;1999.90;999.90;;;;;;;;;;5080241;28;20143;-64
2022/08/17 07:36:23;;;;;;;1999.90;999.90;;;;;;;;;;5082833;28;20102;-65
2022/08/17 07:39:08;;;;;;;1999.90;999.90;;;;;;;;;;5081854;28;20047;-64
2022/08/17 07:42:00;;;;;;;1999.90;999.90;;;;;;;;;;5084067;28;20040;-65
2022/08/17 07:44:49;;;;;;;1999.90;999.90;;;;;;;;;;5076502;28;20519;-65
2022/08/17 07:50:36;;;;;;;1999.90;999.90;;;;;;;;;;5083085;28;20549;-65
2022/08/17 07:53:22;;;;;;;1999.90;999.90;;;;;;;;;;5079836;28;20506;-65
2022/08/17 07:56:06;;;;;;;1999.90;999.90;;;;;;;;;;5081542;28;20047;-65
2022/08/17 07:59:04;;;;;;;1999.90;999.90;;;;;;;;;;5080262;28;20612;-63
2022/08/17 08:01:57;;;;;;;1999.90;999.90;;;;;;;;;;5078026;28;20071;-65
2022/08/17 08:04:44;;;;;;;1999.90;999.90;;;;;;;;;;5081713;28;20569;-64
2022/08/17 08:07:33;;;;;;;1999.90;999.90;;;;;;;;;;5082475;28;20035;-65
2022/08/17 08:10:28;;;;;;;1999.90;999.90;;;;;;;;;;5080198;28;20051;-65
2022/08/17 08:13:14;;;;;;;1999.90;999.90;;;;;;;;;;5080762;28;20090;-64
2022/08/17 08:16:14;;;;;;;1999.90;999.90;;;;;;;;;;5083272;28;20047;-65
2022/08/17 08:19:00;;;;;;;1999.90;999.90;;;;;;;;;;5078610;28;20123;-66
2022/08/17 08:21:57;;;;;;;1999.90;999.90;;;;;;;;;;5081543;28;20051;-66
2022/08/17 08:24:45;;;;;;;1999.90;999.90;;;;;;;;;;5082703;28;20429;-66
2022/08/17 08:27:38;;;;;;;1999.90;999.90;;;;;;;;;;5082611;28;20069;-65
2022/08/17 08:30:22;;;;;;;1999.90;999.90;;;;;;;;;;5081881;28;20178;-65
2022/08/17 08:33:16;;;;;;;1999.90;999.90;;;;;;;;;;5083388;28;20090;-65
2022/08/17 08:36:20;;;;;;;1999.90;999.90;;;;;;;;;;5085273;28;20036;-65
2022/08/17 08:39:11;;;;;;;1999.90;999.90;;;;;;;;;;5082048;28;20079;-67
2022/08/17 08:41:58;;;;;;;1999.90;999.90;;;;;;;;;;5079534;28;20051;-67
2022/08/17 08:45:07;;;;;;;1999.90;999.90;;;;;;;;;;5081008;28;20063;-67
2022/08/17 08:47:58;;;;;;;1999.90;999.90;;;;;;;;;;5082742;28;20452;-66
2022/08/17 08:50:47;;;;;;;1999.90;999.90;;;;;;;;;;5081576;28;20049;-66
2022/08/17 08:53:31;;;;;;;1999.90;999.90;;;;;;;;;;5082382;28;20050;-66
2022/08/17 08:56:36;;;;;;;1999.90;999.90;;;;;;;;;;5082508;28;20763;-67
2022/08/17 08:59:26;;;;;;;1999.90;999.90;;;;;;;;;;5083456;28;20367;-67
2022/08/17 09:02:25;;;;;;;1999.90;999.90;;;;;;;;;;5082789;28;20067;-67
2022/08/17 09:05:28;;;;;;;1999.90;999.90;;;;;;;;;;5079222;28;21385;-67
2022/08/17 09:08:39;;;;;;;1999.90;999.90;;;;;;;;;;5085884;28;20040;-66
2022/08/17 09:11:22;;;;;;;1999.90;999.90;;;;;;;;;;5067556;28;20040;-65
2022/08/17 09:14:27;;;;;;;1999.90;999.90;;;;;;;;;;5084608;28;20050;-64
2022/08/17 09:17:14;;;;;;;1999.90;999.90;;;;;;;;;;5078562;28;20028;-65
2022/08/17 09:20:11;;;;;;;1999.90;999.90;;;;;;;;;;5080205;28;20060;-66
2022/08/17 09:22:58;;;;;;;1999.90;999.90;;;;;;;;;;5081025;28;20141;-66
2022/08/17 09:26:06;;;;;;;1999.90;999.90;;;;;;;;;;5080829;28;20391;-65
2022/08/17 09:28:54;;;;;;;1999.90;999.90;;;;;;;;;;5084214;28;20048;-67
2022/08/17 09:31:57;;;;;;;1999.90;999.90;;;;;;;;;;5082229;28;20055;-64
2022/08/17 09:34:53;;;;;;;1999.90;999.90;;;;;;;;;;5092993;28;20040;-65
2022/08/17 09:37:47;;;;;;;1999.90;999.90;;;;;;;;;;5083749;28;20090;-64
2022/08/17 09:40:45;;;;;;;1999.90;999.90;;;;;;;;;;5083573;28;20040;-64
2022/08/17 09:43:39;;;;;;;1999.90;999.90;;;;;;;;;;5083811;28;20086;-64
2022/08/17 09:46:29;;;;;;;1999.90;999.90;;;;;;;;;;5087939;28;20115;-67
2022/08/17 09:49:26;;;;;;;1999.90;999.90;;;;;;;;;;5086107;28;20052;-63
2022/08/17 09:52:19;;;;;;;1999.90;999.90;;;;;;;;;;5086803;28;20040;-65
2022/08/17 09:55:04;;;;;;;1999.90;999.90;;;;;;;;;;5084941;28;20048;-65
2022/08/17 09:57:48;;;;;;;1999.90;999.90;;;;;;;;;;5084099;28;20494;-65
2022/08/17 10:00:34;;;;;;;1999.90;999.90;;;;;;;;;;5087000;28;20062;-65
2022/08/17 10:03:38;;;;;;;1999.90;999.90;;;;;;;;;;5084987;28;20051;-62
2022/08/17 10:06:25;;;;;;;1999.90;999.90;;;;;;;;;;5083012;28;20059;-64
2022/08/17 10:09:28;;;;;;;1999.90;999.90;;;;;;;;;;5085295;28;20038;-66
2022/08/17 10:12:31;;;;;;;1999.90;999.90;;;;;;;;;;5082973;28;20040;-64
2022/08/17 10:15:18;;;;;;;1999.90;999.90;;;;;;;;;;5086849;28;20487;-65
2022/08/17 10:18:02;;;;;;;1999.90;999.90;;;;;;;;;;5081830;28;20094;-65
2022/08/17 10:20:47;;;;;;;1999.90;999.90;;;;;;;;;;5082499;28;20035;-66
2022/08/17 10:26:38;;;;;;;1999.90;999.90;;;;;;;;;;5083448;28;20067;-64
2022/08/17 10:29:34;;;;;;;1999.90;999.90;;;;;;;;;;5085345;28;20036;-63
2022/08/17 10:32:23;;;;;;;1999.90;999.90;;;;;;;;;;5088089;28;20134;-63
2022/08/17 10:35:24;;;;;;;1999.90;999.90;;;;;;;;;;5089083;28;20082;-63
2022/08/17 10:38:27;;;;;;;1999.90;999.90;;;;;;;;;;5070723;28;20051;-64
2022/08/17 10:41:30;;;;;;;1999.90;999.90;;;;;;;;;;5088469;28;20044;-64
2022/08/17 10:44:34;;;;;;;1999.90;999.90;;;;;;;;;;5088966;28;20040;-63
2022/08/17 10:47:18;;;;;;;1999.90;999.90;;;;;;;;;;5088072;28;20043;-61
2022/08/17 10:50:22;;;;;;;1999.90;999.90;;;;;;;;;;5084828;28;20051;-64
2022/08/17 10:53:07;;;;;;;1999.90;999.90;;;;;;;;;;5079513;28;20047;-63
2022/08/17 10:56:10;;;;;;;1999.90;999.90;;;;;;;;;;5087385;28;20672;-65
2022/08/17 10:58:59;;;;;;;1999.90;999.90;;;;;;;;;;5086700;28;20069;-63
2022/08/17 11:01:57;;;;;;;1999.90;999.90;;;;;;;;;;5085804;28;20051;-63
2022/08/17 11:04:41;;;;;;;1999.90;999.90;;;;;;;;;;5081453;28;20082;-61
2022/08/17 11:07:42;;;;;;;1999.90;999.90;;;;;;;;;;5086215;28;20463;-63
2022/08/17 11:10:27;;;;;;;;;;;;;;;;;;5083884;28;20359;-61
2022/08/17 11:13:36;;;;;;;1999.90;999.90;;;;;;;;;;5086774;28;19920;-64
2022/08/17 11:16:24;;;;;;;1999.90;999.90;;;;;;;;;;5087382;28;20429;-62
2022/08/17 11:19:37;;;;;;;1999.90;999.90;;;;;;;;;;5084614;28;20035;-64
2022/08/17 11:22:22;;;;;;;1999.90;999.90;;;;;;;;;;5023291;28;20078;-64
2022/08/17 11:25:14;;;;;;;1999.90;999.90;;;;;;;;;;5090390;28;20202;-63
2022/08/17 11:28:07;;;;;;;1999.90;999.90;;;;;;;;;;5089832;28;20040;-61
2022/08/17 11:30:53;;;;;;;1999.90;999.90;;;;;;;;;;5086317;28;20055;-61
2022/08/17 11:33:41;;;;;;;1999.90;999.90;;;;;;;;;;5089046;28;20038;-63
2022/08/17 11:36:31;;;;;;;1999.90;999.90;;;;;;;;;;5091265;28;20028;-63
2022/08/17 11:39:19;;;;;;;1999.90;999.90;;;;;;;;;;5089993;28;20043;-64
2022/08/17 11:42:07;;;;;;;1999.90;999.90;;;;;;;;;;5087847;28;20066;-62
2022/08/17 11:44:54;;;;;;;1999.90;999.90;;;;;;;;;;5083747;28;20032;-63
2022/08/17 11:53:44;;;;;;;1999.90;999.90;;;;;;;;;;5084887;28;20134;-62
2022/08/17 11:56:36;;;;;;;1999.90;999.90;;;;;;;;;;5084635;28;20035;-62
2022/08/17 11:59:34;;;;;;;1999.90;999.90;;;;;;;;;;5084059;28;20051;-66
2022/08/17 12:02:31;;;;;;;1999.90;999.90;;;;;;;;;;5085877;28;20569;-63
2022/08/17 12:05:15;;;;;;;1999.90;999.90;;;;;;;;;;5085257;28;20772;-62
2022/08/17 12:08:05;;;;;;;1999.90;999.90;;;;;;;;;;5088163;28;20044;-62
2022/08/17 12:10:55;;;;;;;1999.90;999.90;;;;;;;;;;5087420;28;20086;-65
2022/08/17 12:13:47;;;;;;;1999.90;999.90;;;;;;;;;;5087989;28;20043;-64
2022/08/17 12:16:32;;;;;;;1999.90;999.90;;;;;;;;;;5090589;28;20032;-63
2022/08/17 12:19:20;;;;;;;1999.90;999.90;;;;;;;;;;5089185;28;20584;-63
2022/08/17 12:22:20;;;;;;;1999.90;999.90;;;;;;;;;;5088960;28;20066;-62
2022/08/17 12:25:12;;;;;;;1999.90;999.90;;;;;;;;;;5088646;28;20040;-64
2022/08/17 12:27:56;;;;;;;;;;;;;;;;;;5087544;28;20103;-62
2022/08/17 12:30:47;;;;;;;1999.90;999.90;;;;;;;;;;5089057;28;19955;-62
2022/08/17 12:33:32;;;;;;;1999.90;999.90;;;;;;;;;;5088145;28;20051;-64
2022/08/17 12:36:19;;;;;;;1999.90;999.90;;;;;;;;;;5087535;28;20048;-60
2022/08/17 12:39:06;;;;;;;1999.90;999.90;;;;;;;;;;5089102;28;20477;-63
2022/08/17 12:41:52;;;;;;;1999.90;999.90;;;;;;;;;;5089124;28;20378;-63
2022/08/17 12:44:42;;;;;;;1999.90;999.90;;;;;;;;;;5090417;28;20040;-60
2022/08/17 12:47:26;;;;;;;1999.90;999.90;;;;;;;;;;5087870;28;20044;-61
2022/08/17 12:51:04;;;;;;;1999.90;999.90;;;;;;;;;;5094892;27;20479;-63
2022/08/17 12:53:52;;;;;;;1999.90;999.90;;;;;;;;;;5051901;28;20120;-61
2022/08/17 12:56:36;;;;;;;1999.90;999.90;;;;;;;;;;5047690;28;20549;-58
2022/08/17 12:59:22;;;;;;;1999.90;999.90;;;;;;;;;;5018763;28;20063;-62
2022/08/17 13:02:16;;;;;;;1999.90;999.90;;;;;;;;;;5024267;28;20045;-60
2022/08/17 13:05:01;;;;;;;1999.90;999.90;;;;;;;;;;5031641;28;20123;-57
2022/08/17 13:07:46;;;;;;;1999.90;999.90;;;;;;;;;;5025083;28;20740;-60
2022/08/17 13:10:33;;;;;;;1999.90;999.90;;;;;;;;;;5023002;28;20568;-60
2022/08/17 13:13:22;;;;;;;1999.90;999.90;;;;;;;;;;5029093;28;20075;-61
2022/08/17 13:16:16;;;;;;;1999.90;999.90;;;;;;;;;;5065122;28;20075;-58
2022/08/17 13:19:03;;;;;;;1999.90;999.90;;;;;;;;;;5067052;28;20040;-58
2022/08/17 13:21:53;;;;;;;1999.90;999.90;;;;;;;;;;5057718;28;20483;-62
2022/08/17 13:24:47;;;;;;;1999.90;999.90;;;;;;;;;;5060625;28;20044;-60
2022/08/17 13:27:32;;;;;;;1999.90;999.90;;;;;;;;;;5070244;28;20072;-61
2022/08/17 13:30:22;;;;;;;1999.90;999.90;;;;;;;;;;5069943;28;20498;-60
2022/08/17 13:33:22;;;;;;;1999.90;999.90;;;;;;;;;;5056818;28;20122;-59
2022/08/17 13:36:07;;;;;;;1999.90;999.90;;;;;;;;;;5054998;28;20049;-61
2022/08/17 13:39:03;;;;;;;1999.90;999.90;;;;;;;;;;5053166;28;20080;-61
2022/08/17 13:41:48;;;;;;;1999.90;999.90;;;;;;;;;;5061541;28;20109;-61
2022/08/17 13:44:38;;;;;;;1999.90;999.90;;;;;;;;;;5053583;28;20382;-60
2022/08/17 13:47:23;;;;;;;1999.90;999.90;;;;;;;;;;5076032;28;20047;-60
2022/08/17 13:50:18;;;;;;;1999.90;999.90;;;;;;;;;;5051967;28;20484;-61
2022/08/17 13:53:15;;;;;;;1999.90;999.90;;;;;;;;;;5055117;28;20063;-59
2022/08/17 13:56:04;;;;;;;1999.90;999.90;;;;;;;;;;5055602;28;20047;-58
2022/08/17 13:58:52;;;;;;;1999.90;999.90;;;;;;;;;;5061621;28;20479;-59
2022/08/17 14:01:37;;;;;;;1999.90;999.90;;;;;;;;;;5046309;28;20061;-60
2022/08/17 14:04:26;;;;;;;1999.90;999.90;;;;;;;;;;5046474;28;20572;-62
2022/08/17 14:07:11;;;;;;;1999.90;999.90;;;;;;;;;;5046161;28;20094;-61
2022/08/17 14:09:58;;;;;;;1999.90;999.90;;;;;;;;;;5046038;28;20136;-61
2022/08/17 14:12:44;;;;;;;1999.90;999.90;;;;;;;;;;5043991;28;20037;-61
2022/08/17 14:15:28;;;;;;;1999.90;999.90;;;;;;;;;;5049157;28;20083;-62
2022/08/17 14:18:18;;;;;;;1999.90;999.90;;;;;;;;;;5045707;28;20065;-59
2022/08/17 14:21:03;;;;;;;1999.90;999.90;;;;;;;;;;5047990;28;20250;-61
2022/08/17 14:23:51;;;;;;;1999.90;999.90;;;;;;;;;;5043210;28;20118;-58
2022/08/17 14:26:36;;;;;;;1999.90;999.90;;;;;;;;;;5040611;28;20424;-60
2022/08/17 14:29:21;;;;;;;1999.90;999.90;;;;;;;;;;5043140;28;20072;-59
2022/08/17 14:32:11;;;;;;;1999.90;999.90;;;;;;;;;;5045009;28;20483;-58
2022/08/17 14:34:57;;;;;;;1999.90;999.90;;;;;;;;;;5041655;28;20106;-60
2022/08/17 14:37:43;;;;;;;1999.90;999.90;;;;;;;;;;5036416;28;20110;-59
2022/08/17 14:40:28;;;;;;;1999.90;999.90;;;;;;;;;;5039846;28;20095;-60
2022/08/17 14:43:14;;;;;;;1999.90;999.90;;;;;;;;;;5051606;28;20128;-58
2022/08/17 14:45:59;;;;;;;1999.90;999.90;;;;;;;;;;5035059;28;20792;-59
2022/08/17 14:48:44;;;;;;;1999.90;999.90;;;;;;;;;;5037816;28;20093;-60
2022/08/17 14:51:29;;;;;;;1999.90;999.90;;;;;;;;;;5040614;28;20080;-60
2022/08/17 14:54:14;;;;;;;1999.90;999.90;;;;;;;;;;5036572;28;20037;-60
2022/08/17 14:56:59;;;;;;;1999.90;999.90;;;;;;;;;;5042630;28;20045;-60
2022/08/17 14:59:44;;;;;;;1999.90;999.90;;;;;;;;;;5039658;28;20059;-60
2022/08/17 15:02:29;;;;;;;1999.90;999.90;;;;;;;;;;5041347;28;20107;-61
2022/08/17 15:05:15;;;;;;;1999.90;999.90;;;;;;;;;;5037611;28;20056;-58
2022/08/17 15:08:00;;;;;;;1999.90;999.90;;;;;;;;;;5043656;28;20126;-58
2022/08/17 15:10:48;;;;;;;1999.90;999.90;;;;;;;;;;5042158;28;20053;-58
2022/08/17 15:13:33;;;;;;;1999.90;999.90;;;;;;;;;;5055446;28;20064;-57
2022/08/17 15:16:18;;;;;;;1999.90;999.90;;;;;;;;;;5042345;28;20039;-60
2022/08/17 15:19:04;;;;;;;1999.90;999.90;;;;;;;;;;5037879;28;20068;-62
2022/08/17 15:21:49;;;;;;;1999.90;999.90;;;;;;;;;;5040923;28;20830;-61
2022/08/17 15:24:34;;;;;;;1999.90;999.90;;;;;;;;;;5041009;28;20064;-60
2022/08/17 15:27:22;;;;;;;1999.90;999.90;;;;;;;;;;5040289;28;20059;-60
2022/08/17 15:30:07;;;;;;;1999.90;999.90;;;;;;;;;;5042905;28;20468;-59
2022/08/17 15:32:52;;;;;;;1999.90;999.90;;;;;;;;;;5043007;28;20048;-58
2022/08/17 15:35:38;;;;;;;1999.90;999.90;;;;;;;;;;5041412;28;20073;-58
2022/08/17 15:38:23;;;;;;;1999.90;999.90;;;;;;;;;;5039430;28;20033;-59
2022/08/17 15:41:13;;;;;;;1999.90;999.90;;;;;;;;;;5041899;28;20103;-60
2022/08/17 15:43:59;;;;;;;1999.90;999.90;;;;;;;;;;5039571;28;20118;-59
2022/08/17 15:46:44;;;;;;;1999.90;999.90;;;;;;;;;;5040484;28;20471;-60
2022/08/17 15:49:29;;;;;;;1999.90;999.90;;;;;;;;;;5037054;28;20040;-60
2022/08/17 15:52:15;;;;;;;1999.90;999.90;;;;;;;;;;5037989;28;20061;-61
2022/08/17 15:54:59;;;;;;;1999.90;999.90;;;;;;;;;;5037716;28;20038;-60
2022/08/17 15:57:44;;;;;;;1999.90;999.90;;;;;;;;;;5043299;28;20057;-59
2022/08/17 16:00:29;;;;;;;1999.90;999.90;;;;;;;;;;5039900;28;20048;-60
2022/08/17 16:03:14;;;;;;;1999.90;999.90;;;;;;;;;;5039185;28;20079;-60
2022/08/17 16:05:59;;;;;;;1999.90;999.90;;;;;;;;;;5037929;28;20073;-60